sensor_id;sensor_type;location;lat;lon;timestamp;temperature;humidity
39079;DHT22;24829;49.208;12.080;2023-07-13T00:02:23;20.80;99.90
39079;DHT22;24829;49.208;12.080;2023-07-13T00:04:49;20.90;99.90
39079;DHT22;24829;49.208;12.080;2023-07-13T00:07:16;20.90;99.90
39079;DHT22;24829;49.208;12.080;2023-07-13T00:09:46;20.80;99.90
39079;DHT22;24829;49.208;12.080;2023-07-13T00:12:27;20.80;99.90
39079;DHT22;24829;49.208;12.080;2023-07-13T00:14:53;20.80;99.90
39079;DHT22;24829;49.208;12.080;2023-07-13T00:17:18;20.80;99.90
39079;DHT22;24829;49.208;12.080;2023-07-13T00:19:44;20.70;99.90
39079;DHT22;24829;49.208;12.080;2023-07-13T00:22:09;20.70;99.90
39079;DHT22;24829;49.208;12.080;2023-07-13T00:24:35;20.60;99.90
39079;DHT22;24829;49.208;12.080;2023-07-13T00:27:04;20.70;99.90
39079;DHT22;24829;49.208;12.080;2023-07-13T00:29:30;20.60;99.90
39079;DHT22;24829;49.208;12.080;2023-07-13T00:31:55;20.60;99.90
39079;DHT22;24829;49.208;12.080;2023-07-13T00:34:22;20.60;99.90
39079;DHT22;24829;49.208;12.080;2023-07-13T00:36:48;20.60;99.90
39079;DHT22;24829;49.208;12.080;2023-07-13T00:39:13;20.60;99.90
39079;DHT22;24829;49.208;12.080;2023-07-13T00:41:39;20.70;99.90
39079;DHT22;24829;49.208;12.080;2023-07-13T00:44:04;20.70;99.90
39079;DHT22;24829;49.208;12.080;2023-07-13T00:46:32;20.70;99.90
39079;DHT22;24829;49.208;12.080;2023-07-13T00:49:06;20.60;99.90
39079;DHT22;24829;49.208;12.080;2023-07-13T00:54:05;20.60;99.90
39079;DHT22;24829;49.208;12.080;2023-07-13T00:56:33;20.60;99.90
39079;DHT22;24829;49.208;12.080;2023-07-13T00:58:59;20.50;99.90
39079;DHT22;24829;49.208;12.080;2023-07-13T01:01:26;20.50;99.90
39079;DHT22;24829;49.208;12.080;2023-07-13T01:03:51;20.50;99.90
39079;DHT22;24829;49.208;12.080;2023-07-13T01:06:17;20.50;99.90
39079;DHT22;24829;49.208;12.080;2023-07-13T01:08:43;20.50;99.90
39079;DHT22;24829;49.208;12.080;2023-07-13T01:11:08;20.40;99.90
39079;DHT22;24829;49.208;12.080;2023-07-13T01:13:34;20.30;99.90
39079;DHT22;24829;49.208;12.080;2023-07-13T01:16:04;20.30;99.90
39079;DHT22;24829;49.208;12.080;2023-07-13T01:18:31;20.20;99.90
39079;DHT22;24829;49.208;12.080;2023-07-13T01:21:03;20.10;99.90
39079;DHT22;24829;49.208;12.080;2023-07-13T01:23:30;20.10;99.90
39079;DHT22;24829;49.208;12.080;2023-07-13T01:25:57;20.10;99.90
39079;DHT22;24829;49.208;12.080;2023-07-13T01:28:25;20.00;99.90
39079;DHT22;24829;49.208;12.080;2023-07-13T01:30:53;20.00;99.90
39079;DHT22;24829;49.208;12.080;2023-07-13T01:33:20;20.00;99.90
39079;DHT22;24829;49.208;12.080;2023-07-13T01:35:46;20.00;99.90
39079;DHT22;24829;49.208;12.080;2023-07-13T01:38:15;19.90;99.90
39079;DHT22;24829;49.208;12.080;2023-07-13T01:40:40;19.90;99.90
39079;DHT22;24829;49.208;12.080;2023-07-13T01:43:06;19.90;99.90
39079;DHT22;24829;49.208;12.080;2023-07-13T01:45:32;19.90;99.90
39079;DHT22;24829;49.208;12.080;2023-07-13T01:47:58;19.90;99.90
39079;DHT22;24829;49.208;12.080;2023-07-13T01:50:24;19.90;99.90
39079;DHT22;24829;49.208;12.080;2023-07-13T01:52:50;19.90;99.90
39079;DHT22;24829;49.208;12.080;2023-07-13T01:55:15;19.90;99.90
39079;DHT22;24829;49.208;12.080;2023-07-13T01:57:41;19.80;99.90
39079;DHT22;24829;49.208;12.080;2023-07-13T02:00:09;19.80;99.90
39079;DHT22;24829;49.208;12.080;2023-07-13T02:02:35;19.80;99.90
39079;DHT22;24829;49.208;12.080;2023-07-13T02:05:00;19.80;99.90
39079;DHT22;24829;49.208;12.080;2023-07-13T02:07:26;19.80;99.90
39079;DHT22;24829;49.208;12.080;2023-07-13T02:09:51;19.80;99.90
39079;DHT22;24829;49.208;12.080;2023-07-13T02:12:17;19.80;99.90
39079;DHT22;24829;49.208;12.080;2023-07-13T02:14:42;19.70;99.90
39079;DHT22;24829;49.208;12.080;2023-07-13T02:17:09;19.70;99.90
39079;DHT22;24829;49.208;12.080;2023-07-13T02:19:35;19.70;99.90
39079;DHT22;24829;49.208;12.080;2023-07-13T02:22:01;19.60;99.90
39079;DHT22;24829;49.208;12.080;2023-07-13T02:24:27;19.70;99.90
39079;DHT22;24829;49.208;12.080;2023-07-13T02:26:53;19.60;99.90
39079;DHT22;24829;49.208;12.080;2023-07-13T02:29:18;19.70;99.90
39079;DHT22;24829;49.208;12.080;2023-07-13T02:31:44;19.70;99.90
39079;DHT22;24829;49.208;12.080;2023-07-13T02:34:10;19.70;99.90
39079;DHT22;24829;49.208;12.080;2023-07-13T02:36:35;19.60;99.90
39079;DHT22;24829;49.208;12.080;2023-07-13T02:39:03;19.60;99.90
39079;DHT22;24829;49.208;12.080;2023-07-13T02:41:28;19.60;99.90
39079;DHT22;24829;49.208;12.080;2023-07-13T02:43:54;19.70;99.90
39079;DHT22;24829;49.208;12.080;2023-07-13T02:46:28;19.60;99.90
39079;DHT22;24829;49.208;12.080;2023-07-13T02:48:54;19.60;99.90
39079;DHT22;24829;49.208;12.080;2023-07-13T02:51:19;19.60;99.90
39079;DHT22;24829;49.208;12.080;2023-07-13T02:53:45;19.50;99.90
39079;DHT22;24829;49.208;12.080;2023-07-13T02:56:10;19.50;99.90
39079;DHT22;24829;49.208;12.080;2023-07-13T02:58:36;19.40;99.90
39079;DHT22;24829;49.208;12.080;2023-07-13T03:01:07;19.40;99.90
39079;DHT22;24829;49.208;12.080;2023-07-13T03:03:32;19.30;99.90
39079;DHT22;24829;49.208;12.080;2023-07-13T03:06:00;19.30;99.90
39079;DHT22;24829;49.208;12.080;2023-07-13T03:08:26;19.30;99.90
39079;DHT22;24829;49.208;12.080;2023-07-13T03:11:10;19.20;99.90
39079;DHT22;24829;49.208;12.080;2023-07-13T03:13:37;19.20;99.90
39079;DHT22;24829;49.208;12.080;2023-07-13T03:16:04;19.10;99.90
39079;DHT22;24829;49.208;12.080;2023-07-13T03:18:29;19.10;99.90
39079;DHT22;24829;49.208;12.080;2023-07-13T03:20:55;19.10;99.90
39079;DHT22;24829;49.208;12.080;2023-07-13T03:23:21;19.10;99.90
39079;DHT22;24829;49.208;12.080;2023-07-13T03:25:48;19.00;99.90
39079;DHT22;24829;49.208;12.080;2023-07-13T03:28:14;19.00;99.90
39079;DHT22;24829;49.208;12.080;2023-07-13T03:30:41;19.00;99.90
39079;DHT22;24829;49.208;12.080;2023-07-13T03:33:06;19.00;99.90
39079;DHT22;24829;49.208;12.080;2023-07-13T03:35:33;19.00;99.90
39079;DHT22;24829;49.208;12.080;2023-07-13T03:37:59;19.00;99.90
39079;DHT22;24829;49.208;12.080;2023-07-13T03:40:25;19.00;99.90
39079;DHT22;24829;49.208;12.080;2023-07-13T03:42:52;19.10;99.90
39079;DHT22;24829;49.208;12.080;2023-07-13T03:45:17;19.00;99.90
39079;DHT22;24829;49.208;12.080;2023-07-13T03:47:43;19.00;99.90
39079;DHT22;24829;49.208;12.080;2023-07-13T03:50:09;19.00;99.90
39079;DHT22;24829;49.208;12.080;2023-07-13T03:52:34;18.90;99.90
39079;DHT22;24829;49.208;12.080;2023-07-13T03:55:00;18.90;99.90
39079;DHT22;24829;49.208;12.080;2023-07-13T03:57:26;18.90;99.90
39079;DHT22;24829;49.208;12.080;2023-07-13T03:59:51;18.90;99.90
39079;DHT22;24829;49.208;12.080;2023-07-13T04:02:17;18.80;99.90
39079;DHT22;24829;49.208;12.080;2023-07-13T04:04:43;18.80;99.90
39079;DHT22;24829;49.208;12.080;2023-07-13T04:07:08;18.70;99.90
39079;DHT22;24829;49.208;12.080;2023-07-13T04:09:35;18.80;99.90
39079;DHT22;24829;49.208;12.080;2023-07-13T04:12:01;18.70;99.90
39079;DHT22;24829;49.208;12.080;2023-07-13T04:14:26;18.70;99.90
39079;DHT22;24829;49.208;12.080;2023-07-13T04:16:52;18.80;99.90
39079;DHT22;24829;49.208;12.080;2023-07-13T04:19:20;18.80;99.90
39079;DHT22;24829;49.208;12.080;2023-07-13T04:21:46;18.90;99.90
39079;DHT22;24829;49.208;12.080;2023-07-13T04:24:12;18.90;99.90
39079;DHT22;24829;49.208;12.080;2023-07-13T04:26:38;19.00;99.90
39079;DHT22;24829;49.208;12.080;2023-07-13T04:29:05;19.10;99.90
39079;DHT22;24829;49.208;12.080;2023-07-13T04:31:31;19.20;99.90
39079;DHT22;24829;49.208;12.080;2023-07-13T04:33:57;19.30;99.90
39079;DHT22;24829;49.208;12.080;2023-07-13T04:36:24;19.50;99.90
39079;DHT22;24829;49.208;12.080;2023-07-13T04:38:52;19.80;99.90
39079;DHT22;24829;49.208;12.080;2023-07-13T04:41:20;20.30;99.90
39079;DHT22;24829;49.208;12.080;2023-07-13T04:43:46;20.90;99.90
39079;DHT22;24829;49.208;12.080;2023-07-13T04:46:15;21.10;99.90
39079;DHT22;24829;49.208;12.080;2023-07-13T04:48:41;21.20;99.90
39079;DHT22;24829;49.208;12.080;2023-07-13T04:51:06;21.10;99.90
39079;DHT22;24829;49.208;12.080;2023-07-13T04:53:32;21.00;99.90
39079;DHT22;24829;49.208;12.080;2023-07-13T04:55:59;20.70;99.90
39079;DHT22;24829;49.208;12.080;2023-07-13T04:58:25;20.60;99.90
39079;DHT22;24829;49.208;12.080;2023-07-13T05:00:51;20.40;99.90
39079;DHT22;24829;49.208;12.080;2023-07-13T05:03:17;20.20;99.90
39079;DHT22;24829;49.208;12.080;2023-07-13T05:05:43;20.10;99.90
39079;DHT22;24829;49.208;12.080;2023-07-13T05:08:08;20.00;99.90
39079;DHT22;24829;49.208;12.080;2023-07-13T05:10:35;20.00;99.90
39079;DHT22;24829;49.208;12.080;2023-07-13T05:13:00;20.00;99.90
39079;DHT22;24829;49.208;12.080;2023-07-13T05:15:26;20.00;99.90
39079;DHT22;24829;49.208;12.080;2023-07-13T05:17:52;20.00;99.90
39079;DHT22;24829;49.208;12.080;2023-07-13T05:20:18;19.90;99.90
39079;DHT22;24829;49.208;12.080;2023-07-13T05:22:44;19.90;99.90
39079;DHT22;24829;49.208;12.080;2023-07-13T05:25:12;19.90;99.90
39079;DHT22;24829;49.208;12.080;2023-07-13T05:27:38;19.90;99.90
39079;DHT22;24829;49.208;12.080;2023-07-13T05:30:04;20.00;99.90
39079;DHT22;24829;49.208;12.080;2023-07-13T05:32:30;20.20;99.90
39079;DHT22;24829;49.208;12.080;2023-07-13T05:34:56;20.80;99.90
39079;DHT22;24829;49.208;12.080;2023-07-13T05:37:21;21.40;99.90
39079;DHT22;24829;49.208;12.080;2023-07-13T05:39:47;22.20;99.90
39079;DHT22;24829;49.208;12.080;2023-07-13T05:42:12;22.70;99.90
39079;DHT22;24829;49.208;12.080;2023-07-13T05:44:38;23.30;99.90
39079;DHT22;24829;49.208;12.080;2023-07-13T05:47:04;23.90;99.90
39079;DHT22;24829;49.208;12.080;2023-07-13T05:49:30;24.50;99.90
39079;DHT22;24829;49.208;12.080;2023-07-13T05:51:56;24.70;99.90
39079;DHT22;24829;49.208;12.080;2023-07-13T05:54:21;24.90;99.90
39079;DHT22;24829;49.208;12.080;2023-07-13T05:56:47;25.20;99.90
39079;DHT22;24829;49.208;12.080;2023-07-13T05:59:12;25.40;99.90
39079;DHT22;24829;49.208;12.080;2023-07-13T06:01:38;25.60;99.90
39079;DHT22;24829;49.208;12.080;2023-07-13T06:04:04;25.70;99.90
39079;DHT22;24829;49.208;12.080;2023-07-13T06:06:30;25.90;99.90
39079;DHT22;24829;49.208;12.080;2023-07-13T06:08:55;26.20;99.90
39079;DHT22;24829;49.208;12.080;2023-07-13T06:11:24;26.30;99.90
39079;DHT22;24829;49.208;12.080;2023-07-13T06:13:50;26.40;99.90
39079;DHT22;24829;49.208;12.080;2023-07-13T06:16:16;26.10;99.90
39079;DHT22;24829;49.208;12.080;2023-07-13T06:18:42;25.80;99.90
39079;DHT22;24829;49.208;12.080;2023-07-13T06:21:10;25.70;99.90
39079;DHT22;24829;49.208;12.080;2023-07-13T06:23:36;25.50;99.90
39079;DHT22;24829;49.208;12.080;2023-07-13T06:26:03;25.70;99.90
39079;DHT22;24829;49.208;12.080;2023-07-13T06:28:29;26.20;99.90
39079;DHT22;24829;49.208;12.080;2023-07-13T06:30:57;26.50;99.90
39079;DHT22;24829;49.208;12.080;2023-07-13T06:33:22;26.50;99.90
39079;DHT22;24829;49.208;12.080;2023-07-13T06:35:48;26.50;99.90
39079;DHT22;24829;49.208;12.080;2023-07-13T06:38:13;26.50;99.40
39079;DHT22;24829;49.208;12.080;2023-07-13T06:40:39;26.60;99.30
39079;DHT22;24829;49.208;12.080;2023-07-13T06:43:04;26.80;98.80
39079;DHT22;24829;49.208;12.080;2023-07-13T06:45:30;27.00;98.40
39079;DHT22;24829;49.208;12.080;2023-07-13T06:47:58;27.30;98.60
39079;DHT22;24829;49.208;12.080;2023-07-13T06:50:23;27.30;97.70
39079;DHT22;24829;49.208;12.080;2023-07-13T06:52:49;27.50;96.90
39079;DHT22;24829;49.208;12.080;2023-07-13T06:55:14;27.60;96.60
39079;DHT22;24829;49.208;12.080;2023-07-13T06:57:40;27.80;95.90
39079;DHT22;24829;49.208;12.080;2023-07-13T07:00:06;27.90;95.40
39079;DHT22;24829;49.208;12.080;2023-07-13T07:02:32;28.00;94.50
39079;DHT22;24829;49.208;12.080;2023-07-13T07:04:57;28.10;95.10
39079;DHT22;24829;49.208;12.080;2023-07-13T07:07:24;28.10;94.60
39079;DHT22;24829;49.208;12.080;2023-07-13T07:09:50;28.10;94.70
39079;DHT22;24829;49.208;12.080;2023-07-13T07:12:15;28.20;92.90
39079;DHT22;24829;49.208;12.080;2023-07-13T07:14:41;28.40;92.80
39079;DHT22;24829;49.208;12.080;2023-07-13T07:17:07;28.70;92.60
39079;DHT22;24829;49.208;12.080;2023-07-13T07:19:32;28.80;92.80
39079;DHT22;24829;49.208;12.080;2023-07-13T07:21:58;28.90;91.30
39079;DHT22;24829;49.208;12.080;2023-07-13T07:24:23;28.80;90.50
39079;DHT22;24829;49.208;12.080;2023-07-13T07:26:49;28.50;86.60
39079;DHT22;24829;49.208;12.080;2023-07-13T07:29:14;28.00;86.30
39079;DHT22;24829;49.208;12.080;2023-07-13T07:31:40;27.80;86.70
39079;DHT22;24829;49.208;12.080;2023-07-13T07:34:05;27.70;87.60
39079;DHT22;24829;49.208;12.080;2023-07-13T07:36:31;27.60;86.20
39079;DHT22;24829;49.208;12.080;2023-07-13T07:38:56;27.30;87.00
39079;DHT22;24829;49.208;12.080;2023-07-13T07:41:22;26.90;86.10
39079;DHT22;24829;49.208;12.080;2023-07-13T07:43:47;26.40;87.80
39079;DHT22;24829;49.208;12.080;2023-07-13T07:46:13;26.20;88.80
39079;DHT22;24829;49.208;12.080;2023-07-13T07:48:38;26.30;90.70
39079;DHT22;24829;49.208;12.080;2023-07-13T07:51:04;26.60;89.10
39079;DHT22;24829;49.208;12.080;2023-07-13T07:53:30;26.90;90.50
39079;DHT22;24829;49.208;12.080;2023-07-13T07:55:55;27.30;89.70
39079;DHT22;24829;49.208;12.080;2023-07-13T07:58:21;27.70;88.90
39079;DHT22;24829;49.208;12.080;2023-07-13T08:00:46;28.10;87.20
39079;DHT22;24829;49.208;12.080;2023-07-13T08:03:12;28.20;86.90
39079;DHT22;24829;49.208;12.080;2023-07-13T08:05:37;28.30;86.50
39079;DHT22;24829;49.208;12.080;2023-07-13T08:08:04;28.20;84.70
39079;DHT22;24829;49.208;12.080;2023-07-13T08:10:29;28.10;84.60
39079;DHT22;24829;49.208;12.080;2023-07-13T08:12:55;28.10;84.10
39079;DHT22;24829;49.208;12.080;2023-07-13T08:15:20;28.30;82.90
39079;DHT22;24829;49.208;12.080;2023-07-13T08:17:49;28.50;80.70
39079;DHT22;24829;49.208;12.080;2023-07-13T08:20:15;28.20;78.70
39079;DHT22;24829;49.208;12.080;2023-07-13T08:22:41;27.90;80.00
39079;DHT22;24829;49.208;12.080;2023-07-13T08:25:07;27.80;81.40
39079;DHT22;24829;49.208;12.080;2023-07-13T08:27:33;27.80;82.00
39079;DHT22;24829;49.208;12.080;2023-07-13T08:29:59;28.00;80.90
39079;DHT22;24829;49.208;12.080;2023-07-13T08:32:24;28.20;78.70
39079;DHT22;24829;49.208;12.080;2023-07-13T08:34:50;28.40;79.20
39079;DHT22;24829;49.208;12.080;2023-07-13T08:37:17;28.40;77.70
39079;DHT22;24829;49.208;12.080;2023-07-13T08:39:42;28.30;77.00
39079;DHT22;24829;49.208;12.080;2023-07-13T08:47:56;28.00;73.40
39079;DHT22;24829;49.208;12.080;2023-07-13T08:50:27;28.30;73.50
39079;DHT22;24829;49.208;12.080;2023-07-13T08:52:54;28.30;73.10
39079;DHT22;24829;49.208;12.080;2023-07-13T08:55:30;28.50;73.70
39079;DHT22;24829;49.208;12.080;2023-07-13T08:58:11;28.80;74.80
39079;DHT22;24829;49.208;12.080;2023-07-13T09:03:40;28.50;74.90
39079;DHT22;24829;49.208;12.080;2023-07-13T09:06:10;28.60;73.20
39079;DHT22;24829;49.208;12.080;2023-07-13T09:09:02;28.40;71.10
39079;DHT22;24829;49.208;12.080;2023-07-13T09:11:50;28.70;71.40
39079;DHT22;24829;49.208;12.080;2023-07-13T09:14:44;28.60;70.60
39079;DHT22;24829;49.208;12.080;2023-07-13T09:17:18;28.50;69.90
39079;DHT22;24829;49.208;12.080;2023-07-13T09:19:48;28.40;68.40
39079;DHT22;24829;49.208;12.080;2023-07-13T09:22:20;28.40;66.90
39079;DHT22;24829;49.208;12.080;2023-07-13T09:24:55;28.20;68.40
39079;DHT22;24829;49.208;12.080;2023-07-13T09:27:27;28.10;70.10
39079;DHT22;24829;49.208;12.080;2023-07-13T09:30:22;28.10;70.70
39079;DHT22;24829;49.208;12.080;2023-07-13T09:32:52;28.40;69.30
39079;DHT22;24829;49.208;12.080;2023-07-13T09:35:22;28.50;68.20
39079;DHT22;24829;49.208;12.080;2023-07-13T09:37:50;28.30;68.70
39079;DHT22;24829;49.208;12.080;2023-07-13T09:40:28;28.10;70.30
39079;DHT22;24829;49.208;12.080;2023-07-13T09:42:56;28.20;70.10
39079;DHT22;24829;49.208;12.080;2023-07-13T09:45:28;28.40;67.80
39079;DHT22;24829;49.208;12.080;2023-07-13T09:48:00;28.40;67.50
39079;DHT22;24829;49.208;12.080;2023-07-13T09:50:28;28.50;68.10
39079;DHT22;24829;49.208;12.080;2023-07-13T09:52:55;28.50;66.70
39079;DHT22;24829;49.208;12.080;2023-07-13T09:55:37;28.30;66.70
39079;DHT22;24829;49.208;12.080;2023-07-13T09:58:12;27.90;67.20
39079;DHT22;24829;49.208;12.080;2023-07-13T10:00:38;27.60;67.70
39079;DHT22;24829;49.208;12.080;2023-07-13T10:03:21;27.70;69.20
39079;DHT22;24829;49.208;12.080;2023-07-13T10:05:49;27.60;68.30
39079;DHT22;24829;49.208;12.080;2023-07-13T10:08:27;27.30;68.40
39079;DHT22;24829;49.208;12.080;2023-07-13T10:10:58;27.00;69.60
39079;DHT22;24829;49.208;12.080;2023-07-13T10:15:55;27.20;69.10
39079;DHT22;24829;49.208;12.080;2023-07-13T10:18:21;27.30;69.50
39079;DHT22;24829;49.208;12.080;2023-07-13T10:20:47;27.40;67.90
39079;DHT22;24829;49.208;12.080;2023-07-13T10:23:21;27.30;68.50
39079;DHT22;24829;49.208;12.080;2023-07-13T10:25:49;27.10;68.30
39079;DHT22;24829;49.208;12.080;2023-07-13T10:28:30;27.00;69.50
39079;DHT22;24829;49.208;12.080;2023-07-13T10:30:58;27.10;69.10
39079;DHT22;24829;49.208;12.080;2023-07-13T10:33:25;27.10;68.20
39079;DHT22;24829;49.208;12.080;2023-07-13T10:35:57;27.10;68.00
39079;DHT22;24829;49.208;12.080;2023-07-13T10:38:27;27.00;69.30
39079;DHT22;24829;49.208;12.080;2023-07-13T10:41:06;27.20;68.90
39079;DHT22;24829;49.208;12.080;2023-07-13T10:46:05;27.00;68.40
39079;DHT22;24829;49.208;12.080;2023-07-13T10:48:32;27.00;68.40
39079;DHT22;24829;49.208;12.080;2023-07-13T10:51:00;27.00;68.50
39079;DHT22;24829;49.208;12.080;2023-07-13T10:53:31;26.70;67.60
39079;DHT22;24829;49.208;12.080;2023-07-13T10:56:03;26.70;67.40
39079;DHT22;24829;49.208;12.080;2023-07-13T10:58:44;26.90;67.60
39079;DHT22;24829;49.208;12.080;2023-07-13T11:01:17;27.00;67.80
39079;DHT22;24829;49.208;12.080;2023-07-13T11:06:16;27.40;65.10
39079;DHT22;24829;49.208;12.080;2023-07-13T11:14:03;27.60;64.20
39079;DHT22;24829;49.208;12.080;2023-07-13T11:16:44;27.70;64.60
39079;DHT22;24829;49.208;12.080;2023-07-13T11:25:01;28.20;61.80
39079;DHT22;24829;49.208;12.080;2023-07-13T11:27:42;28.20;60.20
39079;DHT22;24829;49.208;12.080;2023-07-13T11:30:25;28.00;60.80
39079;DHT22;24829;49.208;12.080;2023-07-13T11:35:36;27.90;60.30
39079;DHT22;24829;49.208;12.080;2023-07-13T11:38:13;27.80;60.10
39079;DHT22;24829;49.208;12.080;2023-07-13T11:40:41;27.90;58.60
39079;DHT22;24829;49.208;12.080;2023-07-13T11:43:08;28.00;57.30
39079;DHT22;24829;49.208;12.080;2023-07-13T11:45:33;27.90;57.00
39079;DHT22;24829;49.208;12.080;2023-07-13T11:47:59;27.90;55.90
39079;DHT22;24829;49.208;12.080;2023-07-13T11:50:27;27.80;56.00
39079;DHT22;24829;49.208;12.080;2023-07-13T11:52:54;27.80;56.10
39079;DHT22;24829;49.208;12.080;2023-07-13T11:55:22;27.80;56.70
39079;DHT22;24829;49.208;12.080;2023-07-13T11:57:51;27.70;57.30
39079;DHT22;24829;49.208;12.080;2023-07-13T12:00:22;28.00;56.80
39079;DHT22;24829;49.208;12.080;2023-07-13T12:02:51;28.10;56.30
39079;DHT22;24829;49.208;12.080;2023-07-13T12:05:19;28.10;56.40
39079;DHT22;24829;49.208;12.080;2023-07-13T12:07:46;28.00;57.20
39079;DHT22;24829;49.208;12.080;2023-07-13T12:10:29;27.90;57.90
39079;DHT22;24829;49.208;12.080;2023-07-13T12:13:05;28.00;57.80
39079;DHT22;24829;49.208;12.080;2023-07-13T12:15:39;28.20;57.10
39079;DHT22;24829;49.208;12.080;2023-07-13T12:18:35;28.10;56.20
39079;DHT22;24829;49.208;12.080;2023-07-13T12:21:00;28.00;56.70
39079;DHT22;24829;49.208;12.080;2023-07-13T12:23:31;28.10;56.90
39079;DHT22;24829;49.208;12.080;2023-07-13T12:25:58;28.30;57.10
39079;DHT22;24829;49.208;12.080;2023-07-13T12:28:31;28.40;56.20
39079;DHT22;24829;49.208;12.080;2023-07-13T12:31:04;28.60;55.50
39079;DHT22;24829;49.208;12.080;2023-07-13T12:33:31;28.60;55.80
39079;DHT22;24829;49.208;12.080;2023-07-13T12:36:01;28.50;56.10
39079;DHT22;24829;49.208;12.080;2023-07-13T12:38:27;28.50;55.90
39079;DHT22;24829;49.208;12.080;2023-07-13T12:40:53;28.30;55.10
39079;DHT22;24829;49.208;12.080;2023-07-13T12:43:23;28.10;55.00
39079;DHT22;24829;49.208;12.080;2023-07-13T12:48:22;28.10;56.10
39079;DHT22;24829;49.208;12.080;2023-07-13T12:50:49;28.10;56.30
39079;DHT22;24829;49.208;12.080;2023-07-13T12:53:19;28.10;56.00
39079;DHT22;24829;49.208;12.080;2023-07-13T12:55:50;28.00;55.90
39079;DHT22;24829;49.208;12.080;2023-07-13T12:58:40;28.10;55.70
39079;DHT22;24829;49.208;12.080;2023-07-13T13:01:12;28.10;55.40
39079;DHT22;24829;49.208;12.080;2023-07-13T13:03:50;28.10;56.10
39079;DHT22;24829;49.208;12.080;2023-07-13T13:06:28;28.20;57.00
39079;DHT22;24829;49.208;12.080;2023-07-13T13:08:56;28.30;57.60
39079;DHT22;24829;49.208;12.080;2023-07-13T13:11:24;28.30;56.30
39079;DHT22;24829;49.208;12.080;2023-07-13T13:13:51;28.40;56.20
39079;DHT22;24829;49.208;12.080;2023-07-13T13:16:29;28.30;56.20
39079;DHT22;24829;49.208;12.080;2023-07-13T13:18:59;28.10;57.30
39079;DHT22;24829;49.208;12.080;2023-07-13T13:21:26;28.10;56.00
39079;DHT22;24829;49.208;12.080;2023-07-13T13:23:51;27.90;55.50
39079;DHT22;24829;49.208;12.080;2023-07-13T13:26:19;27.70;56.00
39079;DHT22;24829;49.208;12.080;2023-07-13T13:28:45;27.50;56.40
39079;DHT22;24829;49.208;12.080;2023-07-13T13:31:11;27.50;56.60
39079;DHT22;24829;49.208;12.080;2023-07-13T13:33:39;27.40;57.10
39079;DHT22;24829;49.208;12.080;2023-07-13T13:36:18;27.40;56.80
39079;DHT22;24829;49.208;12.080;2023-07-13T13:38:45;27.50;57.50
39079;DHT22;24829;49.208;12.080;2023-07-13T13:41:12;27.60;57.20
39079;DHT22;24829;49.208;12.080;2023-07-13T13:43:39;27.80;56.40
39079;DHT22;24829;49.208;12.080;2023-07-13T13:46:13;27.80;56.80
39079;DHT22;24829;49.208;12.080;2023-07-13T13:48:41;27.70;55.60
39079;DHT22;24829;49.208;12.080;2023-07-13T13:51:14;27.40;56.00
39079;DHT22;24829;49.208;12.080;2023-07-13T13:53:40;27.20;57.20
39079;DHT22;24829;49.208;12.080;2023-07-13T13:56:06;27.00;56.60
39079;DHT22;24829;49.208;12.080;2023-07-13T13:58:32;26.90;57.40
39079;DHT22;24829;49.208;12.080;2023-07-13T14:00:57;27.00;57.40
39079;DHT22;24829;49.208;12.080;2023-07-13T14:03:23;27.10;57.80
39079;DHT22;24829;49.208;12.080;2023-07-13T14:05:49;27.20;56.40
39079;DHT22;24829;49.208;12.080;2023-07-13T14:08:17;27.10;57.40
39079;DHT22;24829;49.208;12.080;2023-07-13T14:10:48;27.10;56.60
39079;DHT22;24829;49.208;12.080;2023-07-13T14:13:17;26.90;57.10
39079;DHT22;24829;49.208;12.080;2023-07-13T14:15:44;26.90;57.80
39079;DHT22;24829;49.208;12.080;2023-07-13T14:18:10;26.90;56.70
39079;DHT22;24829;49.208;12.080;2023-07-13T14:20:35;27.00;56.70
39079;DHT22;24829;49.208;12.080;2023-07-13T14:23:01;27.20;57.10
39079;DHT22;24829;49.208;12.080;2023-07-13T14:25:27;27.30;55.80
39079;DHT22;24829;49.208;12.080;2023-07-13T14:27:56;27.30;55.70
39079;DHT22;24829;49.208;12.080;2023-07-13T14:30:24;27.10;56.00
39079;DHT22;24829;49.208;12.080;2023-07-13T14:32:51;27.20;57.10
39079;DHT22;24829;49.208;12.080;2023-07-13T14:35:21;27.20;57.20
39079;DHT22;24829;49.208;12.080;2023-07-13T14:37:48;27.30;56.40
39079;DHT22;24829;49.208;12.080;2023-07-13T14:40:21;27.40;56.50
39079;DHT22;24829;49.208;12.080;2023-07-13T14:42:48;27.40;57.10
39079;DHT22;24829;49.208;12.080;2023-07-13T14:45:18;27.50;56.20
39079;DHT22;24829;49.208;12.080;2023-07-13T14:47:44;27.60;56.40
39079;DHT22;24829;49.208;12.080;2023-07-13T14:50:19;27.70;56.70
39079;DHT22;24829;49.208;12.080;2023-07-13T14:52:46;27.70;56.00
39079;DHT22;24829;49.208;12.080;2023-07-13T14:55:17;27.70;55.70
39079;DHT22;24829;49.208;12.080;2023-07-13T14:57:43;27.60;56.30
39079;DHT22;24829;49.208;12.080;2023-07-13T15:00:20;27.60;56.20
39079;DHT22;24829;49.208;12.080;2023-07-13T15:02:51;27.70;56.60
39079;DHT22;24829;49.208;12.080;2023-07-13T15:05:22;27.70;56.80
39079;DHT22;24829;49.208;12.080;2023-07-13T15:07:50;27.80;54.70
39079;DHT22;24829;49.208;12.080;2023-07-13T15:10:18;27.60;55.20
39079;DHT22;24829;49.208;12.080;2023-07-13T15:12:44;27.50;54.50
39079;DHT22;24829;49.208;12.080;2023-07-13T15:15:10;27.50;55.40
39079;DHT22;24829;49.208;12.080;2023-07-13T15:17:39;27.50;56.30
39079;DHT22;24829;49.208;12.080;2023-07-13T15:20:31;27.40;56.10
39079;DHT22;24829;49.208;12.080;2023-07-13T15:22:57;27.30;56.40
39079;DHT22;24829;49.208;12.080;2023-07-13T15:25:30;27.20;56.70
39079;DHT22;24829;49.208;12.080;2023-07-13T15:27:59;27.10;56.60
39079;DHT22;24829;49.208;12.080;2023-07-13T15:30:27;26.90;55.50
39079;DHT22;24829;49.208;12.080;2023-07-13T15:33:10;26.60;56.60
39079;DHT22;24829;49.208;12.080;2023-07-13T15:35:36;26.50;56.90
39079;DHT22;24829;49.208;12.080;2023-07-13T15:38:12;26.40;58.10
39079;DHT22;24829;49.208;12.080;2023-07-13T15:40:38;26.50;57.60
39079;DHT22;24829;49.208;12.080;2023-07-13T15:43:13;26.60;57.30
39079;DHT22;24829;49.208;12.080;2023-07-13T15:45:40;26.80;58.20
39079;DHT22;24829;49.208;12.080;2023-07-13T15:48:25;26.80;57.10
39079;DHT22;24829;49.208;12.080;2023-07-13T15:50:54;26.90;56.70
39079;DHT22;24829;49.208;12.080;2023-07-13T15:53:24;26.90;57.20
39079;DHT22;24829;49.208;12.080;2023-07-13T15:55:50;26.90;57.50
39079;DHT22;24829;49.208;12.080;2023-07-13T15:58:17;26.90;57.70